createdAt,value
2018-12-22T00:01:17.936Z,11.37
2018-12-22T00:06:21.520Z,14.00
2018-12-22T00:11:24.981Z,12.23
2018-12-22T00:16:28.445Z,11.83
2018-12-22T00:21:31.952Z,17.67
2018-12-22T00:26:35.657Z,7.97
2018-12-22T00:31:40.352Z,16.30
2018-12-22T00:36:43.867Z,11.57
2018-12-22T00:41:47.397Z,16.93
2018-12-22T00:46:51.231Z,10.90
2018-12-22T00:52:00.421Z,7.50
2018-12-22T00:57:04.304Z,13.90
2018-12-22T01:02:07.804Z,7.13
2018-12-22T01:07:11.312Z,8.87
2018-12-22T01:12:14.876Z,11.93
2018-12-22T01:17:18.329Z,8.77
2018-12-22T01:22:21.820Z,9.70
2018-12-22T01:27:25.344Z,12.17
2018-12-22T01:32:28.773Z,17.30
2018-12-22T01:37:32.820Z,14.40
2018-12-22T01:42:36.978Z,12.30
2018-12-22T01:47:40.511Z,15.30
2018-12-22T01:52:44.089Z,18.57
2018-12-22T01:57:47.542Z,16.40
2018-12-22T02:02:51.819Z,15.23
2018-12-22T02:07:55.393Z,16.57
2018-12-22T02:12:58.835Z,15.03
2018-12-22T02:18:02.281Z,12.10
2018-12-22T02:23:06.751Z,16.70
2018-12-22T02:28:10.840Z,17.10
2018-12-22T02:33:14.265Z,15.60
2018-12-22T02:38:17.913Z,14.50
2018-12-22T02:43:21.448Z,17.17
2018-12-22T02:48:24.988Z,19.87
2018-12-22T02:53:28.471Z,14.13
2018-12-22T02:58:31.898Z,13.23
2018-12-22T03:03:36.428Z,13.77
2018-12-22T03:08:39.872Z,12.17
2018-12-22T03:13:43.374Z,17.03
2018-12-22T03:18:47.114Z,11.10
2018-12-22T03:23:50.544Z,14.13
2018-12-22T03:28:54.094Z,15.07
2018-12-22T03:33:57.504Z,16.60
2018-12-22T03:39:01.148Z,12.17
2018-12-22T03:44:04.781Z,11.83
2018-12-22T03:49:08.196Z,15.00
2018-12-22T03:54:11.721Z,13.70
2018-12-22T03:59:24.470Z,8.67
2018-12-22T04:04:20.585Z,17.93
2018-12-22T04:09:24.015Z,11.80
2018-12-22T04:14:27.866Z,12.07
2018-12-22T04:19:31.508Z,11.33
2018-12-22T04:24:34.997Z,13.10
2018-12-22T04:29:38.504Z,11.63
2018-12-22T04:34:41.908Z,10.10
2018-12-22T04:39:45.325Z,14.93
2018-12-22T04:44:48.878Z,11.53
2018-12-22T04:49:52.300Z,16.37
2018-12-22T04:54:55.825Z,11.17
2018-12-22T04:59:59.338Z,12.13
2018-12-22T05:05:03.000Z,6.17
2018-12-22T05:10:07.043Z,12.63
2018-12-22T05:15:10.477Z,13.30
2018-12-22T05:20:15.459Z,14.10
2018-12-22T05:25:19.127Z,6.57
2018-12-22T05:30:22.620Z,10.57
2018-12-22T05:35:26.028Z,5.80
2018-12-22T05:40:29.451Z,8.97
2018-12-22T05:45:32.864Z,11.90
2018-12-22T05:50:36.397Z,9.23
2018-12-22T05:55:39.952Z,6.47
2018-12-22T06:00:43.364Z,10.17
2018-12-22T06:05:46.863Z,2.83
2018-12-22T06:10:50.536Z,3.20
2018-12-22T06:15:53.952Z,4.87
2018-12-22T06:20:57.564Z,4.30
2018-12-22T06:26:01.120Z,2.93
2018-12-22T06:31:04.691Z,8.63
2018-12-22T06:36:08.100Z,4.27
2018-12-22T06:41:11.507Z,3.70
2018-12-22T06:46:15.040Z,5.73
2018-12-22T06:51:18.548Z,4.77
2018-12-22T06:56:21.968Z,2.17
2018-12-22T07:01:25.540Z,2.00
2018-12-22T07:06:28.956Z,4.13
2018-12-22T07:11:32.457Z,5.97
2018-12-22T07:16:35.860Z,3.93
2018-12-22T07:21:39.660Z,3.73
2018-12-22T07:26:43.071Z,7.33
2018-12-22T07:31:46.668Z,3.53
2018-12-22T07:36:50.144Z,3.03
2018-12-22T07:41:53.597Z,3.43
2018-12-22T07:46:57.152Z,3.40
2018-12-22T07:52:00.633Z,6.67
2018-12-22T07:57:05.784Z,3.90
2018-12-22T08:02:09.201Z,6.30
2018-12-22T08:07:12.741Z,5.20
2018-12-22T08:12:16.281Z,5.90
2018-12-22T08:17:19.719Z,5.23
2018-12-22T08:22:24.659Z,7.67
2018-12-22T08:27:28.223Z,8.37
2018-12-22T08:32:32.011Z,12.43
2018-12-22T08:37:35.653Z,6.53
2018-12-22T08:42:39.358Z,5.63
2018-12-22T08:47:43.156Z,4.30
2018-12-22T08:52:46.564Z,6.40
2018-12-22T08:57:49.988Z,1.83
2018-12-22T09:02:53.552Z,3.53
2018-12-22T09:07:56.948Z,1.27
2018-12-22T09:13:00.503Z,3.23
2018-12-22T09:18:04.035Z,2.93
2018-12-22T09:23:07.666Z,5.97
2018-12-22T09:28:11.284Z,3.40
2018-12-22T09:33:14.776Z,18.00
2018-12-22T09:38:18.264Z,5.97
2018-12-22T09:43:21.932Z,3.93
2018-12-22T09:48:25.508Z,16.37
2018-12-22T09:53:28.919Z,5.43
2018-12-22T09:58:32.347Z,4.73
2018-12-22T10:03:35.914Z,5.90
2018-12-22T10:08:39.349Z,5.57
2018-12-22T10:13:42.950Z,8.43
2018-12-22T10:18:46.829Z,9.17
2018-12-22T10:23:50.459Z,6.90
2018-12-22T10:28:54.845Z,7.93
2018-12-22T10:33:58.357Z,10.03
2018-12-22T10:39:01.920Z,6.43
2018-12-22T10:44:05.488Z,4.50
2018-12-22T10:49:10.286Z,5.40
2018-12-22T10:54:14.018Z,2.70
2018-12-22T10:59:17.672Z,1.93
2018-12-22T11:04:21.125Z,3.80
2018-12-22T11:09:24.744Z,2.57
2018-12-22T11:14:28.257Z,3.03
2018-12-22T11:19:31.672Z,3.23
2018-12-22T11:24:35.324Z,2.90
2018-12-22T11:29:38.877Z,2.93
2018-12-22T11:34:42.289Z,7.00
2018-12-22T11:39:45.788Z,5.57
2018-12-22T11:44:49.196Z,8.20
2018-12-22T11:49:52.765Z,5.93
2018-12-22T11:54:56.333Z,6.50
2018-12-22T11:59:59.895Z,3.43
2018-12-22T12:05:03.649Z,7.13
2018-12-22T12:10:09.560Z,4.73
2018-12-22T12:15:19.960Z,6.87
2018-12-22T12:20:23.420Z,5.93
2018-12-22T12:25:26.873Z,5.93
2018-12-22T12:30:33.238Z,6.20
2018-12-22T12:35:36.784Z,6.07
2018-12-22T12:40:40.272Z,7.33
2018-12-22T12:45:43.707Z,10.23
2018-12-22T12:50:47.930Z,4.43
2018-12-22T12:55:51.584Z,7.90
2018-12-22T13:00:54.995Z,7.90
2018-12-22T13:05:58.488Z,5.63
2018-12-22T13:11:01.932Z,6.83
2018-12-22T13:16:05.580Z,7.50
2018-12-22T13:21:10.056Z,5.23
2018-12-22T13:26:13.673Z,10.80
2018-12-22T13:31:19.379Z,7.10
2018-12-22T13:36:22.799Z,6.20
2018-12-22T13:41:26.223Z,15.13
2018-12-22T13:46:29.719Z,12.53
2018-12-22T13:51:33.344Z,15.67
2018-12-22T13:56:36.915Z,6.83
2018-12-22T14:01:44.808Z,5.67
2018-12-22T14:06:48.688Z,7.10
2018-12-22T14:11:52.119Z,7.23
2018-12-22T14:17:20.492Z,6.27
2018-12-22T14:22:24.088Z,9.03
2018-12-22T14:27:27.644Z,11.00
2018-12-22T14:32:31.217Z,7.20
2018-12-22T14:37:34.631Z,4.30
2018-12-22T14:42:38.060Z,9.50
2018-12-22T14:47:41.764Z,6.70
2018-12-22T14:52:45.172Z,8.30
2018-12-22T14:57:56.102Z,11.43
2018-12-22T15:02:59.517Z,7.40
2018-12-22T15:08:03.065Z,9.87
2018-12-22T15:13:06.635Z,7.40
2018-12-22T15:18:10.049Z,9.33
2018-12-22T15:23:15.000Z,6.40
2018-12-22T15:28:18.533Z,6.10
2018-12-22T15:33:22.020Z,8.97
2018-12-22T15:38:26.420Z,8.03
2018-12-22T15:43:29.881Z,10.47
2018-12-22T15:48:33.291Z,10.97
2018-12-22T15:53:36.703Z,9.80
2018-12-22T15:58:40.131Z,8.97
2018-12-22T16:03:43.688Z,8.70
2018-12-22T16:08:47.404Z,8.37
2018-12-22T16:13:50.925Z,10.80
2018-12-22T16:18:54.336Z,9.33
2018-12-22T16:23:57.944Z,12.77
2018-12-22T16:29:10.817Z,12.50
2018-12-22T16:34:14.425Z,14.67
2018-12-22T16:39:18.041Z,12.73
2018-12-22T16:44:21.624Z,12.80
2018-12-22T16:49:25.044Z,8.87
2018-12-22T16:54:28.692Z,12.00
2018-12-22T16:59:33.997Z,7.53
2018-12-22T17:04:37.489Z,9.17
2018-12-22T17:09:40.891Z,9.77
2018-12-22T17:14:44.400Z,13.37
2018-12-22T17:19:47.876Z,15.50
2018-12-22T17:25:02.335Z,10.93
2018-12-22T17:30:06.341Z,11.00
2018-12-22T17:35:12.653Z,11.73
2018-12-22T17:40:16.246Z,11.60
2018-12-22T17:45:19.668Z,11.80
2018-12-22T17:50:23.077Z,15.17
2018-12-22T17:55:26.660Z,12.80
2018-12-22T18:00:30.160Z,15.47
2018-12-22T18:05:33.712Z,16.70
2018-12-22T18:10:37.142Z,16.67
2018-12-22T18:15:40.660Z,13.23
2018-12-22T18:20:44.077Z,10.43
2018-12-22T18:25:47.684Z,10.73
2018-12-22T18:30:51.256Z,24.40
2018-12-22T18:35:54.664Z,11.30
2018-12-22T18:40:58.189Z,14.33
2018-12-22T18:46:01.604Z,14.07
2018-12-22T18:51:05.340Z,10.13
2018-12-22T18:56:08.744Z,12.87
2018-12-22T19:01:12.244Z,15.50
2018-12-22T19:06:15.826Z,13.87
2018-12-22T19:11:21.444Z,12.23
2018-12-22T19:16:24.995Z,15.07
2018-12-22T19:21:28.548Z,14.77
2018-12-22T19:26:33.004Z,10.47
2018-12-22T19:31:41.669Z,9.97
2018-12-22T19:36:42.196Z,9.63
2018-12-22T19:41:45.762Z,10.90
2018-12-22T19:46:49.452Z,11.33
2018-12-22T19:51:53.040Z,11.27
2018-12-22T19:56:56.525Z,13.07
2018-12-22T20:02:00.104Z,15.27
2018-12-22T20:07:03.742Z,13.70
2018-12-22T20:12:07.244Z,11.17
2018-12-22T20:17:10.684Z,13.50
2018-12-22T20:22:14.347Z,13.37
2018-12-22T20:27:17.972Z,16.97
2018-12-22T20:32:21.495Z,13.73
2018-12-22T20:37:24.921Z,22.00
2018-12-22T20:42:28.619Z,14.37
2018-12-22T20:47:32.220Z,15.77
2018-12-22T20:52:35.684Z,11.40
2018-12-22T20:57:39.368Z,14.83
2018-12-22T21:02:42.883Z,13.30
2018-12-22T21:07:46.449Z,14.67
2018-12-22T21:12:49.864Z,15.10
2018-12-22T21:17:53.377Z,13.13
2018-12-22T21:22:56.833Z,14.20
2018-12-22T21:28:00.356Z,13.13
2018-12-22T21:33:04.599Z,12.17
2018-12-22T21:38:08.060Z,16.53
2018-12-22T21:43:11.510Z,15.13
2018-12-22T21:48:15.232Z,13.77
2018-12-22T21:53:18.849Z,11.77
2018-12-22T21:58:22.565Z,12.43
2018-12-22T22:03:26.073Z,15.23
2018-12-22T22:08:29.597Z,10.30
2018-12-22T22:13:33.064Z,16.93
2018-12-22T22:18:36.471Z,14.03
2018-12-22T22:23:40.032Z,14.73
2018-12-22T22:28:43.552Z,18.37
2018-12-22T22:33:47.404Z,12.23
2018-12-22T22:38:50.836Z,19.43
2018-12-22T22:43:54.432Z,20.27
2018-12-22T22:48:57.936Z,18.27
2018-12-22T22:54:01.464Z,18.97
2018-12-22T22:59:04.896Z,22.03
2018-12-22T23:04:08.692Z,16.97
2018-12-22T23:09:12.296Z,9.90
2018-12-22T23:14:15.776Z,15.07
2018-12-22T23:19:19.237Z,13.07
2018-12-22T23:24:22.712Z,14.67
2018-12-22T23:29:26.224Z,9.33
2018-12-22T23:34:29.742Z,8.77
2018-12-22T23:39:33.312Z,8.23
2018-12-22T23:44:36.731Z,15.03
2018-12-22T23:54:52.133Z,14.57
2018-12-22T23:59:55.572Z,10.40
